sensor_id;sensor_type;location;lat;lon;timestamp;pressure;altitude;pressure_sealevel;temperature;humidity
55755;BME280;41674;52.290;-1.474;2023-12-20T00:01:26;101449.25;;;3.93;93.74
55755;BME280;41674;52.290;-1.474;2023-12-20T00:03:55;101450.13;;;3.40;96.86
55755;BME280;41674;52.290;-1.474;2023-12-20T00:06:27;101448.92;;;3.38;96.12
55755;BME280;41674;52.290;-1.474;2023-12-20T00:08:55;101436.46;;;3.09;98.34
55755;BME280;41674;52.290;-1.474;2023-12-20T00:11:27;101439.25;;;3.59;98.84
55755;BME280;41674;52.290;-1.474;2023-12-20T00:13:54;101441.49;;;2.94;99.92
55755;BME280;41674;52.290;-1.474;2023-12-20T00:16:24;101436.33;;;3.45;98.04
55755;BME280;41674;52.290;-1.474;2023-12-20T00:18:53;101430.53;;;2.73;98.65
55755;BME280;41674;52.290;-1.474;2023-12-20T00:21:24;101431.69;;;3.35;97.21
55755;BME280;41674;52.290;-1.474;2023-12-20T00:23:59;101435.11;;;3.67;95.06
55755;BME280;41674;52.290;-1.474;2023-12-20T00:26:28;101430.81;;;3.91;93.27
55755;BME280;41674;52.290;-1.474;2023-12-20T00:28:53;101425.75;;;3.63;93.27
55755;BME280;41674;52.290;-1.474;2023-12-20T00:31:22;101426.79;;;3.64;95.19
55755;BME280;41674;52.290;-1.474;2023-12-20T00:34:00;101421.45;;;3.61;94.62
55755;BME280;41674;52.290;-1.474;2023-12-20T00:36:22;101417.74;;;4.01;92.23
55755;BME280;41674;52.290;-1.474;2023-12-20T00:38:57;101422.42;;;3.79;94.42
55755;BME280;41674;52.290;-1.474;2023-12-20T00:41:20;101420.81;;;3.44;96.77
55755;BME280;41674;52.290;-1.474;2023-12-20T00:43:50;101414.10;;;3.74;96.23
55755;BME280;41674;52.290;-1.474;2023-12-20T00:46:20;101418.98;;;3.90;95.60
55755;BME280;41674;52.290;-1.474;2023-12-20T00:48:50;101419.29;;;4.05;94.43
55755;BME280;41674;52.290;-1.474;2023-12-20T00:51:20;101419.86;;;3.30;97.03
55755;BME280;41674;52.290;-1.474;2023-12-20T00:53:53;101416.97;;;3.59;96.81
55755;BME280;41674;52.290;-1.474;2023-12-20T00:56:21;101418.81;;;3.53;95.18
55755;BME280;41674;52.290;-1.474;2023-12-20T00:58:48;101424.47;;;3.27;97.97
55755;BME280;41674;52.290;-1.474;2023-12-20T01:01:17;101423.94;;;3.21;100.00
55755;BME280;41674;52.290;-1.474;2023-12-20T01:03:47;101434.26;;;3.42;100.00
55755;BME280;41674;52.290;-1.474;2023-12-20T01:06:17;101427.81;;;3.11;100.00
55755;BME280;41674;52.290;-1.474;2023-12-20T01:08:46;101427.12;;;3.37;100.00
55755;BME280;41674;52.290;-1.474;2023-12-20T01:11:17;101419.97;;;3.21;99.96
55755;BME280;41674;52.290;-1.474;2023-12-20T01:13:46;101418.94;;;3.37;99.15
55755;BME280;41674;52.290;-1.474;2023-12-20T01:16:16;101414.03;;;3.62;99.06
55755;BME280;41674;52.290;-1.474;2023-12-20T01:18:47;101414.42;;;3.62;97.47
55755;BME280;41674;52.290;-1.474;2023-12-20T01:21:15;101412.04;;;3.42;98.68
55755;BME280;41674;52.290;-1.474;2023-12-20T01:23:45;101413.44;;;3.75;97.73
55755;BME280;41674;52.290;-1.474;2023-12-20T01:26:16;101412.23;;;3.71;97.93
55755;BME280;41674;52.290;-1.474;2023-12-20T01:28:44;101415.65;;;3.46;98.52
55755;BME280;41674;52.290;-1.474;2023-12-20T01:31:15;101413.36;;;4.30;95.97
55755;BME280;41674;52.290;-1.474;2023-12-20T01:33:45;101409.87;;;4.19;94.06
55755;BME280;41674;52.290;-1.474;2023-12-20T01:36:14;101414.24;;;3.81;95.96
55755;BME280;41674;52.290;-1.474;2023-12-20T01:38:48;101413.93;;;3.45;97.51
55755;BME280;41674;52.290;-1.474;2023-12-20T01:41:16;101408.08;;;3.70;97.76
55755;BME280;41674;52.290;-1.474;2023-12-20T01:43:42;101414.24;;;3.45;100.00
55755;BME280;41674;52.290;-1.474;2023-12-20T01:46:13;101403.90;;;3.28;99.74
55755;BME280;41674;52.290;-1.474;2023-12-20T01:48:47;101397.05;;;3.11;100.00
55755;BME280;41674;52.290;-1.474;2023-12-20T01:51:11;101397.53;;;3.36;100.00
55755;BME280;41674;52.290;-1.474;2023-12-20T01:53:41;101391.47;;;2.94;100.00
55755;BME280;41674;52.290;-1.474;2023-12-20T01:56:11;101394.67;;;3.39;100.00
55755;BME280;41674;52.290;-1.474;2023-12-20T01:58:46;101391.62;;;3.00;100.00
55755;BME280;41674;52.290;-1.474;2023-12-20T02:01:11;101393.82;;;2.94;100.00
55755;BME280;41674;52.290;-1.474;2023-12-20T02:03:39;101392.61;;;3.61;100.00
55755;BME280;41674;52.290;-1.474;2023-12-20T02:06:11;101390.94;;;3.17;100.00
55755;BME280;41674;52.290;-1.474;2023-12-20T02:08:38;101395.42;;;3.40;100.00
55755;BME280;41674;52.290;-1.474;2023-12-20T02:11:08;101392.57;;;3.61;100.00
55755;BME280;41674;52.290;-1.474;2023-12-20T02:13:43;101395.59;;;3.46;100.00
55755;BME280;41674;52.290;-1.474;2023-12-20T02:16:08;101397.97;;;4.24;96.63
55755;BME280;41674;52.290;-1.474;2023-12-20T02:18:38;101397.66;;;4.91;93.08
55755;BME280;41674;52.290;-1.474;2023-12-20T02:21:07;101397.32;;;4.49;95.67
55755;BME280;41674;52.290;-1.474;2023-12-20T02:23:41;101384.09;;;3.86;97.80
55755;BME280;41674;52.290;-1.474;2023-12-20T02:26:06;101386.05;;;4.11;98.70
55755;BME280;41674;52.290;-1.474;2023-12-20T02:28:36;101382.14;;;3.57;100.00
55755;BME280;41674;52.290;-1.474;2023-12-20T02:31:10;101382.87;;;3.67;100.00
55755;BME280;41674;52.290;-1.474;2023-12-20T02:33:35;101381.89;;;4.02;98.89
55755;BME280;41674;52.290;-1.474;2023-12-20T02:36:18;101388.81;;;3.62;98.90
55755;BME280;41674;52.290;-1.474;2023-12-20T02:38:35;101385.45;;;3.97;98.46
55755;BME280;41674;52.290;-1.474;2023-12-20T02:43:41;101384.17;;;4.16;99.52
55755;BME280;41674;52.290;-1.474;2023-12-20T02:46:03;101388.84;;;3.85;100.00
55755;BME280;41674;52.290;-1.474;2023-12-20T02:48:33;101383.47;;;3.66;100.00
55755;BME280;41674;52.290;-1.474;2023-12-20T02:51:04;101389.07;;;3.81;100.00
55755;BME280;41674;52.290;-1.474;2023-12-20T02:53:32;101381.64;;;4.32;99.52
55755;BME280;41674;52.290;-1.474;2023-12-20T02:56:08;101382.04;;;4.32;99.50
55755;BME280;41674;52.290;-1.474;2023-12-20T02:58:37;101382.34;;;4.16;99.08
55755;BME280;41674;52.290;-1.474;2023-12-20T03:01:01;101389.11;;;3.63;100.00
55755;BME280;41674;52.290;-1.474;2023-12-20T03:03:33;101396.70;;;3.82;100.00
55755;BME280;41674;52.290;-1.474;2023-12-20T03:06:01;101397.49;;;4.07;100.00
55755;BME280;41674;52.290;-1.474;2023-12-20T03:08:30;101393.60;;;3.74;100.00
55755;BME280;41674;52.290;-1.474;2023-12-20T03:11:00;101385.71;;;3.77;100.00
55755;BME280;41674;52.290;-1.474;2023-12-20T03:13:29;101383.70;;;3.90;100.00
55755;BME280;41674;52.290;-1.474;2023-12-20T03:16:02;101385.20;;;4.19;100.00
55755;BME280;41674;52.290;-1.474;2023-12-20T03:18:30;101380.31;;;4.08;100.00
55755;BME280;41674;52.290;-1.474;2023-12-20T03:20:59;101378.87;;;3.96;100.00
55755;BME280;41674;52.290;-1.474;2023-12-20T03:23:29;101374.85;;;3.82;100.00
55755;BME280;41674;52.290;-1.474;2023-12-20T03:25:58;101368.88;;;4.47;98.36
55755;BME280;41674;52.290;-1.474;2023-12-20T03:28:29;101369.06;;;4.55;100.00
55755;BME280;41674;52.290;-1.474;2023-12-20T03:30:59;101369.03;;;3.94;100.00
55755;BME280;41674;52.290;-1.474;2023-12-20T03:33:27;101363.32;;;4.39;99.55
55755;BME280;41674;52.290;-1.474;2023-12-20T03:35:56;101362.69;;;4.01;100.00
55755;BME280;41674;52.290;-1.474;2023-12-20T03:38:32;101358.81;;;4.47;100.00
55755;BME280;41674;52.290;-1.474;2023-12-20T03:40:56;101351.78;;;4.32;100.00
55755;BME280;41674;52.290;-1.474;2023-12-20T03:43:26;101349.39;;;4.06;100.00
55755;BME280;41674;52.290;-1.474;2023-12-20T03:45:55;101343.07;;;4.40;100.00
55755;BME280;41674;52.290;-1.474;2023-12-20T03:48:25;101345.22;;;4.17;100.00
55755;BME280;41674;52.290;-1.474;2023-12-20T03:50:54;101341.00;;;4.14;100.00
55755;BME280;41674;52.290;-1.474;2023-12-20T03:53:24;101341.62;;;4.02;100.00
55755;BME280;41674;52.290;-1.474;2023-12-20T03:55:53;101336.89;;;3.97;100.00
55755;BME280;41674;52.290;-1.474;2023-12-20T03:58:23;101343.00;;;4.53;100.00
55755;BME280;41674;52.290;-1.474;2023-12-20T04:00:58;101343.36;;;4.19;100.00
55755;BME280;41674;52.290;-1.474;2023-12-20T04:03:23;101347.92;;;4.26;100.00
55755;BME280;41674;52.290;-1.474;2023-12-20T04:05:52;101346.92;;;3.49;100.00
55755;BME280;41674;52.290;-1.474;2023-12-20T04:08:26;101339.12;;;4.89;98.45
55755;BME280;41674;52.290;-1.474;2023-12-20T04:10:51;101336.58;;;4.41;99.75
55755;BME280;41674;52.290;-1.474;2023-12-20T04:13:26;101338.60;;;4.86;97.46
55755;BME280;41674;52.290;-1.474;2023-12-20T04:15:51;101339.88;;;4.28;99.47
55755;BME280;41674;52.290;-1.474;2023-12-20T04:18:20;101339.20;;;4.28;100.00
55755;BME280;41674;52.290;-1.474;2023-12-20T04:20:51;101342.00;;;4.04;100.00
55755;BME280;41674;52.290;-1.474;2023-12-20T04:23:21;101339.53;;;4.28;100.00
55755;BME280;41674;52.290;-1.474;2023-12-20T04:25:51;101337.58;;;5.10;97.81
55755;BME280;41674;52.290;-1.474;2023-12-20T04:28:20;101334.86;;;4.24;100.00
55755;BME280;41674;52.290;-1.474;2023-12-20T04:30:50;101334.02;;;4.93;98.85
55755;BME280;41674;52.290;-1.474;2023-12-20T04:33:18;101336.86;;;3.95;100.00
55755;BME280;41674;52.290;-1.474;2023-12-20T04:35:48;101331.97;;;3.55;100.00
55755;BME280;41674;52.290;-1.474;2023-12-20T04:38:19;101325.61;;;4.22;100.00
55755;BME280;41674;52.290;-1.474;2023-12-20T04:40:47;101330.50;;;4.41;100.00
55755;BME280;41674;52.290;-1.474;2023-12-20T04:43:18;101328.16;;;3.66;100.00
55755;BME280;41674;52.290;-1.474;2023-12-20T04:45:48;101318.21;;;4.06;100.00
55755;BME280;41674;52.290;-1.474;2023-12-20T04:48:21;101303.98;;;3.96;100.00
55755;BME280;41674;52.290;-1.474;2023-12-20T04:50:48;101298.61;;;3.90;100.00
55755;BME280;41674;52.290;-1.474;2023-12-20T04:53:16;101295.85;;;4.48;100.00
55755;BME280;41674;52.290;-1.474;2023-12-20T04:55:46;101303.10;;;4.06;100.00
55755;BME280;41674;52.290;-1.474;2023-12-20T04:58:15;101293.39;;;4.16;100.00
55755;BME280;41674;52.290;-1.474;2023-12-20T05:00:45;101293.30;;;4.42;100.00
55755;BME280;41674;52.290;-1.474;2023-12-20T05:03:15;101285.02;;;4.14;100.00
55755;BME280;41674;52.290;-1.474;2023-12-20T05:05:45;101283.14;;;4.15;100.00
55755;BME280;41674;52.290;-1.474;2023-12-20T05:08:14;101277.59;;;4.05;100.00
55755;BME280;41674;52.290;-1.474;2023-12-20T05:10:44;101280.11;;;3.62;100.00
55755;BME280;41674;52.290;-1.474;2023-12-20T05:13:13;101272.69;;;3.82;100.00
55755;BME280;41674;52.290;-1.474;2023-12-20T05:15:44;101281.21;;;3.31;100.00
55755;BME280;41674;52.290;-1.474;2023-12-20T05:18:13;101278.42;;;3.07;100.00
55755;BME280;41674;52.290;-1.474;2023-12-20T05:20:42;101285.25;;;3.23;100.00
55755;BME280;41674;52.290;-1.474;2023-12-20T05:23:13;101285.99;;;3.12;100.00
55755;BME280;41674;52.290;-1.474;2023-12-20T05:25:47;101290.31;;;2.89;100.00
55755;BME280;41674;52.290;-1.474;2023-12-20T05:28:11;101279.86;;;3.51;100.00
55755;BME280;41674;52.290;-1.474;2023-12-20T05:30:41;101280.73;;;3.42;100.00
55755;BME280;41674;52.290;-1.474;2023-12-20T05:33:10;101283.33;;;3.57;100.00
55755;BME280;41674;52.290;-1.474;2023-12-20T05:35:40;101277.91;;;3.25;100.00
55755;BME280;41674;52.290;-1.474;2023-12-20T05:38:09;101274.41;;;3.20;100.00
55755;BME280;41674;52.290;-1.474;2023-12-20T05:40:45;101278.26;;;2.99;100.00
55755;BME280;41674;52.290;-1.474;2023-12-20T05:43:09;101276.82;;;3.34;100.00
55755;BME280;41674;52.290;-1.474;2023-12-20T05:45:39;101279.27;;;3.24;100.00
55755;BME280;41674;52.290;-1.474;2023-12-20T05:48:08;101273.64;;;3.43;100.00
55755;BME280;41674;52.290;-1.474;2023-12-20T05:50:39;101275.11;;;3.16;100.00
55755;BME280;41674;52.290;-1.474;2023-12-20T05:53:19;101273.36;;;2.38;100.00
55755;BME280;41674;52.290;-1.474;2023-12-20T05:55:40;101268.23;;;3.29;100.00
55755;BME280;41674;52.290;-1.474;2023-12-20T05:58:10;101275.42;;;2.96;100.00
55755;BME280;41674;52.290;-1.474;2023-12-20T06:00:40;101282.70;;;3.17;100.00
55755;BME280;41674;52.290;-1.474;2023-12-20T06:03:07;101275.62;;;3.94;100.00
55755;BME280;41674;52.290;-1.474;2023-12-20T06:05:37;101267.60;;;3.84;100.00
55755;BME280;41674;52.290;-1.474;2023-12-20T06:08:07;101272.12;;;3.84;100.00
55755;BME280;41674;52.290;-1.474;2023-12-20T06:10:40;101264.51;;;3.13;100.00
55755;BME280;41674;52.290;-1.474;2023-12-20T06:13:19;101266.11;;;2.81;100.00
55755;BME280;41674;52.290;-1.474;2023-12-20T06:15:38;101263.61;;;3.53;100.00
55755;BME280;41674;52.290;-1.474;2023-12-20T06:18:07;101269.23;;;3.87;100.00
55755;BME280;41674;52.290;-1.474;2023-12-20T06:20:38;101281.24;;;4.15;100.00
55755;BME280;41674;52.290;-1.474;2023-12-20T06:23:13;101286.37;;;3.74;100.00
55755;BME280;41674;52.290;-1.474;2023-12-20T06:25:39;101283.22;;;3.64;100.00
55755;BME280;41674;52.290;-1.474;2023-12-20T06:28:14;101284.54;;;3.33;100.00
55755;BME280;41674;52.290;-1.474;2023-12-20T06:30:38;101289.97;;;3.59;100.00
55755;BME280;41674;52.290;-1.474;2023-12-20T06:33:09;101287.25;;;2.93;100.00
55755;BME280;41674;52.290;-1.474;2023-12-20T06:35:37;101281.02;;;4.46;100.00
55755;BME280;41674;52.290;-1.474;2023-12-20T06:38:11;101283.14;;;4.09;100.00
55755;BME280;41674;52.290;-1.474;2023-12-20T06:40:34;101272.18;;;4.47;100.00
55755;BME280;41674;52.290;-1.474;2023-12-20T06:43:05;101269.70;;;4.40;100.00
55755;BME280;41674;52.290;-1.474;2023-12-20T06:45:33;101259.88;;;4.80;100.00
55755;BME280;41674;52.290;-1.474;2023-12-20T06:48:08;101245.01;;;4.36;100.00
55755;BME280;41674;52.290;-1.474;2023-12-20T06:50:33;101239.27;;;4.09;100.00
55755;BME280;41674;52.290;-1.474;2023-12-20T06:53:02;101240.18;;;3.85;100.00
55755;BME280;41674;52.290;-1.474;2023-12-20T06:55:33;101238.14;;;4.23;100.00
55755;BME280;41674;52.290;-1.474;2023-12-20T06:58:01;101239.01;;;3.96;100.00
55755;BME280;41674;52.290;-1.474;2023-12-20T07:00:31;101252.61;;;3.69;100.00
55755;BME280;41674;52.290;-1.474;2023-12-20T07:03:00;101262.83;;;4.36;100.00
55755;BME280;41674;52.290;-1.474;2023-12-20T07:05:29;101263.93;;;3.87;100.00
55755;BME280;41674;52.290;-1.474;2023-12-20T07:07:59;101262.37;;;4.33;100.00
55755;BME280;41674;52.290;-1.474;2023-12-20T07:10:28;101263.95;;;4.64;100.00
55755;BME280;41674;52.290;-1.474;2023-12-20T07:12:57;101258.33;;;4.19;100.00
55755;BME280;41674;52.290;-1.474;2023-12-20T07:15:27;101250.27;;;3.82;100.00
55755;BME280;41674;52.290;-1.474;2023-12-20T07:17:57;101262.62;;;4.21;100.00
55755;BME280;41674;52.290;-1.474;2023-12-20T07:20:27;101271.65;;;4.04;100.00
55755;BME280;41674;52.290;-1.474;2023-12-20T07:22:56;101275.91;;;3.97;100.00
55755;BME280;41674;52.290;-1.474;2023-12-20T07:25:26;101281.58;;;4.14;100.00
55755;BME280;41674;52.290;-1.474;2023-12-20T07:27:56;101277.28;;;4.44;100.00
55755;BME280;41674;52.290;-1.474;2023-12-20T07:30:26;101284.50;;;4.89;100.00
55755;BME280;41674;52.290;-1.474;2023-12-20T07:32:56;101293.14;;;4.08;100.00
55755;BME280;41674;52.290;-1.474;2023-12-20T07:35:25;101296.22;;;4.09;100.00
55755;BME280;41674;52.290;-1.474;2023-12-20T07:37:54;101286.98;;;4.04;100.00
55755;BME280;41674;52.290;-1.474;2023-12-20T07:40:24;101265.33;;;4.71;100.00
55755;BME280;41674;52.290;-1.474;2023-12-20T07:42:53;101268.62;;;4.14;100.00
55755;BME280;41674;52.290;-1.474;2023-12-20T07:45:22;101284.86;;;4.78;100.00
55755;BME280;41674;52.290;-1.474;2023-12-20T07:47:52;101301.00;;;4.43;100.00
55755;BME280;41674;52.290;-1.474;2023-12-20T07:50:22;101308.70;;;4.70;100.00
55755;BME280;41674;52.290;-1.474;2023-12-20T07:52:52;101320.62;;;4.11;100.00
55755;BME280;41674;52.290;-1.474;2023-12-20T07:55:20;101311.20;;;5.01;100.00
55755;BME280;41674;52.290;-1.474;2023-12-20T07:57:51;101307.83;;;4.65;100.00
55755;BME280;41674;52.290;-1.474;2023-12-20T08:00:24;101307.36;;;4.64;100.00
55755;BME280;41674;52.290;-1.474;2023-12-20T08:02:48;101310.63;;;4.34;100.00
55755;BME280;41674;52.290;-1.474;2023-12-20T08:05:18;101307.95;;;4.51;100.00
55755;BME280;41674;52.290;-1.474;2023-12-20T08:07:47;101300.45;;;4.71;100.00
55755;BME280;41674;52.290;-1.474;2023-12-20T08:10:17;101296.52;;;4.02;100.00
55755;BME280;41674;52.290;-1.474;2023-12-20T08:12:46;101288.21;;;4.73;100.00
55755;BME280;41674;52.290;-1.474;2023-12-20T08:15:16;101279.80;;;4.84;100.00
55755;BME280;41674;52.290;-1.474;2023-12-20T08:17:47;101273.84;;;4.25;100.00
55755;BME280;41674;52.290;-1.474;2023-12-20T08:20:16;101285.85;;;4.58;100.00
55755;BME280;41674;52.290;-1.474;2023-12-20T08:22:49;101288.49;;;4.17;100.00
55755;BME280;41674;52.290;-1.474;2023-12-20T08:25:13;101286.39;;;4.39;100.00
55755;BME280;41674;52.290;-1.474;2023-12-20T08:27:43;101290.81;;;4.33;100.00
55755;BME280;41674;52.290;-1.474;2023-12-20T08:30:14;101288.90;;;4.67;100.00
55755;BME280;41674;52.290;-1.474;2023-12-20T08:32:44;101278.22;;;4.79;100.00
55755;BME280;41674;52.290;-1.474;2023-12-20T08:35:13;101270.04;;;4.84;100.00
55755;BME280;41674;52.290;-1.474;2023-12-20T08:37:41;101267.67;;;4.60;100.00
55755;BME280;41674;52.290;-1.474;2023-12-20T08:40:11;101277.00;;;4.85;100.00
55755;BME280;41674;52.290;-1.474;2023-12-20T08:42:40;101283.11;;;5.16;100.00
55755;BME280;41674;52.290;-1.474;2023-12-20T08:45:12;101289.72;;;5.11;100.00
55755;BME280;41674;52.290;-1.474;2023-12-20T08:47:39;101294.20;;;4.41;100.00
55755;BME280;41674;52.290;-1.474;2023-12-20T08:50:10;101299.23;;;5.12;100.00
55755;BME280;41674;52.290;-1.474;2023-12-20T08:52:38;101288.74;;;5.76;100.00
55755;BME280;41674;52.290;-1.474;2023-12-20T08:55:08;101298.70;;;4.97;100.00
55755;BME280;41674;52.290;-1.474;2023-12-20T08:57:37;101307.19;;;4.83;100.00
55755;BME280;41674;52.290;-1.474;2023-12-20T09:00:09;101312.55;;;5.43;100.00
55755;BME280;41674;52.290;-1.474;2023-12-20T09:02:37;101325.58;;;5.25;100.00
55755;BME280;41674;52.290;-1.474;2023-12-20T09:05:06;101333.97;;;5.62;100.00
55755;BME280;41674;52.290;-1.474;2023-12-20T09:07:35;101330.23;;;5.49;100.00
55755;BME280;41674;52.290;-1.474;2023-12-20T09:10:06;101310.94;;;5.42;100.00
55755;BME280;41674;52.290;-1.474;2023-12-20T09:12:35;101310.57;;;5.79;100.00
55755;BME280;41674;52.290;-1.474;2023-12-20T09:15:05;101313.93;;;5.78;100.00
55755;BME280;41674;52.290;-1.474;2023-12-20T09:17:36;101304.10;;;5.90;100.00
55755;BME280;41674;52.290;-1.474;2023-12-20T09:20:04;101291.14;;;5.82;100.00
55755;BME280;41674;52.290;-1.474;2023-12-20T09:22:34;101279.83;;;5.10;100.00
55755;BME280;41674;52.290;-1.474;2023-12-20T09:25:04;101295.77;;;4.86;100.00
55755;BME280;41674;52.290;-1.474;2023-12-20T09:27:33;101291.29;;;5.19;100.00
55755;BME280;41674;52.290;-1.474;2023-12-20T09:30:05;101288.89;;;5.01;100.00
55755;BME280;41674;52.290;-1.474;2023-12-20T09:32:32;101279.05;;;5.06;100.00
55755;BME280;41674;52.290;-1.474;2023-12-20T09:35:01;101287.54;;;4.77;100.00
55755;BME280;41674;52.290;-1.474;2023-12-20T09:37:31;101291.99;;;5.26;100.00
55755;BME280;41674;52.290;-1.474;2023-12-20T09:40:01;101300.44;;;5.18;100.00
55755;BME280;41674;52.290;-1.474;2023-12-20T09:42:37;101300.38;;;4.96;100.00
55755;BME280;41674;52.290;-1.474;2023-12-20T09:45:02;101309.74;;;4.92;100.00
55755;BME280;41674;52.290;-1.474;2023-12-20T09:47:30;101305.24;;;5.50;100.00
55755;BME280;41674;52.290;-1.474;2023-12-20T09:49:59;101300.64;;;5.12;100.00
55755;BME280;41674;52.290;-1.474;2023-12-20T09:52:29;101289.33;;;5.18;100.00
55755;BME280;41674;52.290;-1.474;2023-12-20T09:54:59;101294.15;;;4.72;100.00
55755;BME280;41674;52.290;-1.474;2023-12-20T09:57:28;101292.90;;;4.99;100.00
55755;BME280;41674;52.290;-1.474;2023-12-20T09:59:58;101280.03;;;4.81;100.00
55755;BME280;41674;52.290;-1.474;2023-12-20T10:02:29;101273.43;;;5.32;100.00
55755;BME280;41674;52.290;-1.474;2023-12-20T10:04:57;101272.57;;;5.19;100.00
55755;BME280;41674;52.290;-1.474;2023-12-20T10:07:27;101277.36;;;4.94;100.00
55755;BME280;41674;52.290;-1.474;2023-12-20T10:09:56;101286.40;;;4.98;100.00
55755;BME280;41674;52.290;-1.474;2023-12-20T10:12:26;101283.91;;;5.77;100.00
55755;BME280;41674;52.290;-1.474;2023-12-20T10:14:56;101281.25;;;5.36;100.00
55755;BME280;41674;52.290;-1.474;2023-12-20T10:17:27;101278.91;;;5.63;100.00
55755;BME280;41674;52.290;-1.474;2023-12-20T10:19:55;101278.27;;;5.51;100.00
55755;BME280;41674;52.290;-1.474;2023-12-20T10:22:24;101267.80;;;6.10;100.00
55755;BME280;41674;52.290;-1.474;2023-12-20T10:24:56;101262.20;;;6.04;100.00
55755;BME280;41674;52.290;-1.474;2023-12-20T10:27:29;101259.77;;;6.66;100.00
55755;BME280;41674;52.290;-1.474;2023-12-20T10:29:54;101258.56;;;6.90;100.00
55755;BME280;41674;52.290;-1.474;2023-12-20T10:32:24;101252.84;;;6.11;100.00
55755;BME280;41674;52.290;-1.474;2023-12-20T10:34:55;101247.62;;;6.17;100.00
55755;BME280;41674;52.290;-1.474;2023-12-20T10:37:24;101242.17;;;6.65;100.00
55755;BME280;41674;52.290;-1.474;2023-12-20T10:39:54;101248.12;;;6.17;100.00
55755;BME280;41674;52.290;-1.474;2023-12-20T10:42:22;101249.99;;;6.18;100.00
55755;BME280;41674;52.290;-1.474;2023-12-20T10:44:51;101255.03;;;7.28;100.00
55755;BME280;41674;52.290;-1.474;2023-12-20T10:47:21;101259.22;;;6.69;100.00
55755;BME280;41674;52.290;-1.474;2023-12-20T10:49:52;101255.27;;;6.66;100.00
55755;BME280;41674;52.290;-1.474;2023-12-20T10:52:24;101269.20;;;6.20;100.00
55755;BME280;41674;52.290;-1.474;2023-12-20T10:54:49;101253.04;;;6.59;100.00
55755;BME280;41674;52.290;-1.474;2023-12-20T10:57:19;101243.27;;;6.28;100.00
55755;BME280;41674;52.290;-1.474;2023-12-20T10:59:54;101232.21;;;7.03;100.00
55755;BME280;41674;52.290;-1.474;2023-12-20T11:02:18;101229.50;;;6.87;100.00
55755;BME280;41674;52.290;-1.474;2023-12-20T11:04:53;101218.14;;;6.87;100.00
55755;BME280;41674;52.290;-1.474;2023-12-20T11:07:23;101207.43;;;6.99;100.00
55755;BME280;41674;52.290;-1.474;2023-12-20T11:09:55;101200.63;;;6.24;100.00
55755;BME280;41674;52.290;-1.474;2023-12-20T11:12:21;101191.46;;;7.30;100.00
55755;BME280;41674;52.290;-1.474;2023-12-20T11:14:47;101185.14;;;6.35;100.00
55755;BME280;41674;52.290;-1.474;2023-12-20T11:17:16;101174.12;;;6.46;100.00
55755;BME280;41674;52.290;-1.474;2023-12-20T11:22:15;101164.75;;;6.79;100.00
55755;BME280;41674;52.290;-1.474;2023-12-20T11:24:46;101157.07;;;7.00;100.00
55755;BME280;41674;52.290;-1.474;2023-12-20T11:27:14;101157.56;;;7.14;100.00
55755;BME280;41674;52.290;-1.474;2023-12-20T11:29:50;101156.18;;;7.15;100.00
55755;BME280;41674;52.290;-1.474;2023-12-20T11:32:28;101154.51;;;7.22;100.00
55755;BME280;41674;52.290;-1.474;2023-12-20T11:34:43;101151.20;;;7.04;100.00
55755;BME280;41674;52.290;-1.474;2023-12-20T11:37:13;101146.53;;;6.96;100.00
55755;BME280;41674;52.290;-1.474;2023-12-20T11:39:43;101144.10;;;7.46;100.00
55755;BME280;41674;52.290;-1.474;2023-12-20T11:42:12;101148.48;;;7.36;100.00
55755;BME280;41674;52.290;-1.474;2023-12-20T11:44:42;101152.27;;;6.70;100.00
55755;BME280;41674;52.290;-1.474;2023-12-20T11:47:11;101139.77;;;6.78;100.00
55755;BME280;41674;52.290;-1.474;2023-12-20T11:49:41;101129.70;;;6.34;100.00
55755;BME280;41674;52.290;-1.474;2023-12-20T11:52:12;101137.62;;;6.15;100.00
55755;BME280;41674;52.290;-1.474;2023-12-20T11:54:39;101121.05;;;6.52;100.00
55755;BME280;41674;52.290;-1.474;2023-12-20T11:57:09;101108.76;;;6.42;100.00
55755;BME280;41674;52.290;-1.474;2023-12-20T11:59:38;101106.08;;;6.31;100.00
55755;BME280;41674;52.290;-1.474;2023-12-20T12:02:15;101097.97;;;6.58;100.00
55755;BME280;41674;52.290;-1.474;2023-12-20T12:04:38;101094.25;;;6.11;100.00
55755;BME280;41674;52.290;-1.474;2023-12-20T12:07:07;101086.30;;;6.87;100.00
55755;BME280;41674;52.290;-1.474;2023-12-20T12:09:38;101084.11;;;6.78;100.00
55755;BME280;41674;52.290;-1.474;2023-12-20T12:12:07;101080.37;;;7.60;100.00
55755;BME280;41674;52.290;-1.474;2023-12-20T12:14:36;101080.17;;;7.19;100.00
55755;BME280;41674;52.290;-1.474;2023-12-20T12:17:11;101086.81;;;7.59;100.00
55755;BME280;41674;52.290;-1.474;2023-12-20T12:19:35;101080.35;;;6.71;100.00
55755;BME280;41674;52.290;-1.474;2023-12-20T12:22:05;101072.47;;;7.25;100.00
55755;BME280;41674;52.290;-1.474;2023-12-20T12:24:34;101085.76;;;7.74;100.00
55755;BME280;41674;52.290;-1.474;2023-12-20T12:27:07;101086.34;;;7.44;100.00
55755;BME280;41674;52.290;-1.474;2023-12-20T12:29:33;101096.52;;;7.18;100.00
55755;BME280;41674;52.290;-1.474;2023-12-20T12:32:05;101103.98;;;6.64;100.00
55755;BME280;41674;52.290;-1.474;2023-12-20T12:34:33;101082.52;;;7.27;100.00
55755;BME280;41674;52.290;-1.474;2023-12-20T12:37:03;101057.89;;;7.44;100.00
55755;BME280;41674;52.290;-1.474;2023-12-20T12:39:34;101054.16;;;7.16;100.00
55755;BME280;41674;52.290;-1.474;2023-12-20T12:42:01;101041.04;;;6.88;100.00
55755;BME280;41674;52.290;-1.474;2023-12-20T12:44:31;101027.85;;;7.40;100.00
55755;BME280;41674;52.290;-1.474;2023-12-20T12:47:00;101013.72;;;7.53;100.00
55755;BME280;41674;52.290;-1.474;2023-12-20T12:49:30;101011.69;;;7.54;100.00
55755;BME280;41674;52.290;-1.474;2023-12-20T12:52:00;101019.88;;;8.00;100.00
55755;BME280;41674;52.290;-1.474;2023-12-20T12:54:29;101014.75;;;7.82;100.00
55755;BME280;41674;52.290;-1.474;2023-12-20T12:56:59;101008.60;;;7.58;100.00
55755;BME280;41674;52.290;-1.474;2023-12-20T12:59:28;101007.78;;;7.53;100.00